ALK174 VOBL-VCBI
Flight info
| Callsign | ALK174 |
|---|---|
| Flight time | 1h 10m |
| Altitude | 37000 |
| Route | AKTIM7B AKTIM V45 TTR G325 IDIBI IDIBI1A |
| Aircraft | A20N/M-SDE2E3FGHIRWXY/LB1 |
Departure
| Time | 2026-04-24 04:30 |
|---|---|
| Airport | Kempegowda International Airport Bengaluru (VOBL) |
Arrival
| Time | 2026-04-24 05:40 |
|---|---|
| Airport | Bandaranaike International Colombo Airport (VCBI) |
| Time | Latitude | Longitude | Altitude | Speed | Heading |
|---|---|---|---|---|---|
| 2026-04-24 04:13 | 13.20356 | 77.70690 | 2963 ft | 0 kts | 1° |
| 2026-04-24 04:19 | 13.20355 | 77.70689 | 2963 ft | 0 kts | 352° |
| 2026-04-24 04:19 | 13.20352 | 77.70689 | 2963 ft | 0 kts | 324° |
| 2026-04-24 04:20 | 13.20347 | 77.70693 | 2963 ft | 0 kts | 269° |
| 2026-04-24 04:23 | 13.20347 | 77.70691 | 2963 ft | 1 kts | 262° |
| 2026-04-24 04:23 | 13.20335 | 77.70678 | 2953 ft | 5 kts | 215° |
| 2026-04-24 04:24 | 13.20279 | 77.70653 | 2965 ft | 11 kts | 224° |
| 2026-04-24 04:24 | 13.20266 | 77.70577 | 2956 ft | 11 kts | 271° |
| 2026-04-24 04:24 | 13.20267 | 77.70494 | 2967 ft | 12 kts | 271° |
| 2026-04-24 04:24 | 13.20279 | 77.70410 | 2969 ft | 12 kts | 301° |
| 2026-04-24 04:25 | 13.20354 | 77.70384 | 2970 ft | 12 kts | 7° |
| 2026-04-24 04:25 | 13.20448 | 77.70392 | 2970 ft | 15 kts | 1° |
| 2026-04-24 04:25 | 13.20529 | 77.70447 | 2969 ft | 17 kts | 77° |
| 2026-04-24 04:25 | 13.20530 | 77.70578 | 2957 ft | 20 kts | 90° |
| 2026-04-24 04:26 | 13.20529 | 77.70735 | 2958 ft | 24 kts | 90° |
| 2026-04-24 04:26 | 13.20529 | 77.70884 | 2955 ft | 22 kts | 90° |
| 2026-04-24 04:26 | 13.20525 | 77.71052 | 2955 ft | 25 kts | 92° |
| 2026-04-24 04:26 | 13.20522 | 77.71244 | 2951 ft | 28 kts | 90° |
| 2026-04-24 04:27 | 13.20521 | 77.71403 | 2940 ft | 12 kts | 91° |
| 2026-04-24 04:27 | 13.20520 | 77.71508 | 2938 ft | 17 kts | 90° |
| 2026-04-24 04:27 | 13.20519 | 77.71642 | 2942 ft | 21 kts | 90° |
| 2026-04-24 04:27 | 13.20518 | 77.71803 | 2936 ft | 24 kts | 90° |
| 2026-04-24 04:28 | 13.20517 | 77.71989 | 2928 ft | 28 kts | 90° |
| 2026-04-24 04:28 | 13.20517 | 77.72131 | 2932 ft | 13 kts | 90° |
| 2026-04-24 04:28 | 13.20520 | 77.72238 | 2929 ft | 17 kts | 74° |
| 2026-04-24 04:28 | 13.20622 | 77.72283 | 2928 ft | 18 kts | 356° |
| 2026-04-24 04:29 | 13.20687 | 77.72200 | 2930 ft | 16 kts | 277° |
| 2026-04-24 04:29 | 13.20689 | 77.72169 | 2931 ft | 0 kts | 270° |
| 2026-04-24 04:29 | 13.20690 | 77.71966 | 2935 ft | 64 kts | 271° |
| 2026-04-24 04:30 | 13.20696 | 77.71281 | 2950 ft | 124 kts | 270° |
| 2026-04-24 04:30 | 13.20705 | 77.70224 | 2988 ft | 170 kts | 270° |
| 2026-04-24 04:30 | 13.20714 | 77.69035 | 3748 ft | 163 kts | 270° |
| 2026-04-24 04:30 | 13.20725 | 77.67782 | 4011 ft | 204 kts | 270° |
| 2026-04-24 04:31 | 13.20756 | 77.66195 | 4309 ft | 235 kts | 270° |
| 2026-04-24 04:31 | 13.20798 | 77.64453 | 4812 ft | 258 kts | 271° |
| 2026-04-24 04:31 | 13.20901 | 77.62532 | 5399 ft | 280 kts | 282° |
| 2026-04-24 04:31 | 13.21718 | 77.60704 | 6339 ft | 286 kts | 309° |
| 2026-04-24 04:32 | 13.23254 | 77.59385 | 7265 ft | 290 kts | 332° |
| 2026-04-24 04:32 | 13.25022 | 77.58356 | 8303 ft | 294 kts | 329° |
| 2026-04-24 04:32 | 13.26634 | 77.57107 | 9066 ft | 298 kts | 320° |
| 2026-04-24 04:32 | 13.28067 | 77.55500 | 9702 ft | 308 kts | 309° |
| 2026-04-24 04:33 | 13.29036 | 77.53520 | 10362 ft | 319 kts | 286° |
| 2026-04-24 04:33 | 13.29221 | 77.51170 | 10670 ft | 344 kts | 263° |
| 2026-04-24 04:33 | 13.28501 | 77.48785 | 11005 ft | 365 kts | 240° |
| 2026-04-24 04:33 | 13.26896 | 77.46759 | 11744 ft | 369 kts | 218° |
| 2026-04-24 04:34 | 13.24681 | 77.45427 | 12556 ft | 369 kts | 198° |
| 2026-04-24 04:34 | 13.22242 | 77.44612 | 13373 ft | 374 kts | 194° |
| 2026-04-24 04:34 | 13.19726 | 77.43817 | 14099 ft | 379 kts | 190° |
| 2026-04-24 04:34 | 13.17110 | 77.43518 | 14947 ft | 375 kts | 176° |
| 2026-04-24 04:35 | 13.14568 | 77.43905 | 15715 ft | 373 kts | 161° |
| 2026-04-24 04:35 | 13.12231 | 77.45069 | 16383 ft | 375 kts | 142° |
| 2026-04-24 04:35 | 13.10367 | 77.46954 | 17030 ft | 378 kts | 124° |
| 2026-04-24 04:35 | 13.08955 | 77.49232 | 17664 ft | 382 kts | 121° |
| 2026-04-24 04:36 | 13.07579 | 77.51588 | 18244 ft | 388 kts | 121° |
| 2026-04-24 04:36 | 13.06122 | 77.53912 | 18782 ft | 392 kts | 127° |
| 2026-04-24 04:36 | 13.04417 | 77.56119 | 19342 ft | 395 kts | 129° |
| 2026-04-24 04:36 | 13.02684 | 77.58330 | 19909 ft | 399 kts | 129° |
| 2026-04-24 04:37 | 13.00937 | 77.60560 | 20485 ft | 402 kts | 129° |
| 2026-04-24 04:37 | 12.99167 | 77.62811 | 21054 ft | 406 kts | 130° |
| 2026-04-24 04:37 | 12.97297 | 77.64943 | 21591 ft | 408 kts | 140° |
| 2026-04-24 04:37 | 12.94947 | 77.66574 | 22160 ft | 409 kts | 155° |
| 2026-04-24 04:38 | 12.92253 | 77.67532 | 22712 ft | 410 kts | 170° |
| 2026-04-24 04:38 | 12.89410 | 77.67747 | 23287 ft | 410 kts | 184° |
| 2026-04-24 04:38 | 12.86553 | 77.67502 | 23831 ft | 412 kts | 187° |
| 2026-04-24 04:38 | 12.83695 | 77.67198 | 24360 ft | 413 kts | 187° |
| 2026-04-24 04:39 | 12.80836 | 77.66900 | 24901 ft | 414 kts | 187° |
| 2026-04-24 04:39 | 12.78014 | 77.66623 | 25399 ft | 415 kts | 187° |
| 2026-04-24 04:39 | 12.75116 | 77.66352 | 25877 ft | 417 kts | 186° |
| 2026-04-24 04:39 | 12.72222 | 77.66090 | 26362 ft | 418 kts | 186° |
| 2026-04-24 04:40 | 12.69316 | 77.65831 | 26812 ft | 419 kts | 187° |
| 2026-04-24 04:40 | 12.66400 | 77.65572 | 27247 ft | 420 kts | 187° |
| 2026-04-24 04:40 | 12.63482 | 77.65314 | 27674 ft | 421 kts | 187° |
| 2026-04-24 04:40 | 12.60541 | 77.65053 | 28074 ft | 423 kts | 187° |
| 2026-04-24 04:41 | 12.57626 | 77.64794 | 28478 ft | 424 kts | 187° |
| 2026-04-24 04:41 | 12.54670 | 77.64532 | 28860 ft | 426 kts | 187° |
| 2026-04-24 04:41 | 12.51707 | 77.64233 | 29246 ft | 426 kts | 188° |
| 2026-04-24 04:41 | 12.48761 | 77.63850 | 29632 ft | 428 kts | 189° |
| 2026-04-24 04:42 | 12.45841 | 77.63448 | 30001 ft | 429 kts | 189° |
| 2026-04-24 04:42 | 12.42865 | 77.63041 | 30336 ft | 431 kts | 189° |
| 2026-04-24 04:42 | 12.39876 | 77.62642 | 30662 ft | 432 kts | 189° |
| 2026-04-24 04:42 | 12.36882 | 77.62250 | 30987 ft | 434 kts | 189° |
| 2026-04-24 04:43 | 12.33928 | 77.61867 | 31382 ft | 433 kts | 189° |
| 2026-04-24 04:43 | 12.30935 | 77.61480 | 31802 ft | 431 kts | 189° |
| 2026-04-24 04:43 | 12.27962 | 77.61097 | 32241 ft | 429 kts | 189° |
| 2026-04-24 04:43 | 12.25009 | 77.60717 | 32683 ft | 427 kts | 189° |
| 2026-04-24 04:44 | 12.22067 | 77.60338 | 33123 ft | 425 kts | 190° |
| 2026-04-24 04:44 | 12.19166 | 77.59963 | 33540 ft | 423 kts | 190° |
| 2026-04-24 04:44 | 12.16244 | 77.59587 | 33948 ft | 421 kts | 190° |
| 2026-04-24 04:44 | 12.13331 | 77.59213 | 34267 ft | 420 kts | 189° |
| 2026-04-24 04:45 | 12.10395 | 77.59111 | 34549 ft | 424 kts | 180° |
| 2026-04-24 04:45 | 12.07495 | 77.59534 | 34782 ft | 430 kts | 171° |
| 2026-04-24 04:45 | 12.04629 | 77.60508 | 34987 ft | 436 kts | 161° |
| 2026-04-24 04:45 | 12.01943 | 77.62029 | 35260 ft | 444 kts | 151° |
| 2026-04-24 04:46 | 11.99519 | 77.64016 | 35526 ft | 449 kts | 145° |
| 2026-04-24 04:46 | 11.97175 | 77.66082 | 35771 ft | 449 kts | 145° |
| 2026-04-24 04:46 | 11.94804 | 77.68160 | 36024 ft | 448 kts | 146° |
| 2026-04-24 04:46 | 11.92428 | 77.70238 | 36284 ft | 448 kts | 146° |
| 2026-04-24 04:47 | 11.90055 | 77.72312 | 36547 ft | 448 kts | 146° |
| 2026-04-24 04:47 | 11.87685 | 77.74382 | 36791 ft | 447 kts | 146° |
| 2026-04-24 04:47 | 11.85347 | 77.76423 | 36913 ft | 447 kts | 146° |
| 2026-04-24 04:47 | 11.82974 | 77.78495 | 36916 ft | 446 kts | 146° |
| 2026-04-24 04:48 | 11.78286 | 77.82587 | 36910 ft | 446 kts | 146° |
| 2026-04-24 04:48 | 11.73556 | 77.86713 | 36906 ft | 446 kts | 146° |
| 2026-04-24 04:49 | 11.68831 | 77.90834 | 36904 ft | 445 kts | 146° |
| 2026-04-24 04:49 | 11.64129 | 77.94932 | 36903 ft | 446 kts | 146° |
| 2026-04-24 04:50 | 11.59450 | 77.99067 | 36899 ft | 446 kts | 145° |
| 2026-04-24 04:50 | 11.55558 | 78.02557 | 36895 ft | 446 kts | 145° |
| 2026-04-24 04:51 | 11.50911 | 78.06715 | 36890 ft | 446 kts | 145° |
| 2026-04-24 04:51 | 11.45456 | 78.11582 | 36893 ft | 446 kts | 145° |
| 2026-04-24 04:52 | 11.41558 | 78.15056 | 36890 ft | 446 kts | 145° |
| 2026-04-24 04:52 | 11.36869 | 78.19234 | 36889 ft | 446 kts | 145° |
| 2026-04-24 04:53 | 11.32206 | 78.23388 | 36883 ft | 446 kts | 145° |
| 2026-04-24 04:53 | 11.27559 | 78.27525 | 36877 ft | 446 kts | 145° |
| 2026-04-24 04:54 | 11.22882 | 78.31686 | 36881 ft | 446 kts | 145° |
| 2026-04-24 04:54 | 11.18205 | 78.35847 | 36882 ft | 446 kts | 145° |
| 2026-04-24 04:55 | 11.13542 | 78.39994 | 36881 ft | 446 kts | 145° |
| 2026-04-24 04:55 | 11.08856 | 78.44159 | 36881 ft | 445 kts | 145° |
| 2026-04-24 04:56 | 11.04181 | 78.48312 | 36878 ft | 445 kts | 145° |
| 2026-04-24 04:56 | 10.99540 | 78.52432 | 36878 ft | 445 kts | 145° |
| 2026-04-24 04:57 | 10.94859 | 78.56587 | 36879 ft | 444 kts | 145° |
| 2026-04-24 04:57 | 10.90223 | 78.60700 | 36879 ft | 444 kts | 144° |
| 2026-04-24 04:58 | 10.85560 | 78.64834 | 36882 ft | 444 kts | 144° |
| 2026-04-24 04:58 | 10.80896 | 78.68951 | 36879 ft | 442 kts | 147° |
| 2026-04-24 04:59 | 10.75813 | 78.72354 | 36879 ft | 433 kts | 158° |
| 2026-04-24 04:59 | 10.70281 | 78.74615 | 36875 ft | 426 kts | 168° |
| 2026-04-24 05:00 | 10.64641 | 78.76363 | 36873 ft | 426 kts | 167° |
| 2026-04-24 05:00 | 10.58970 | 78.78142 | 36872 ft | 426 kts | 167° |
| 2026-04-24 05:01 | 10.53287 | 78.79924 | 36866 ft | 426 kts | 167° |
| 2026-04-24 05:01 | 10.47632 | 78.81694 | 36862 ft | 427 kts | 167° |
| 2026-04-24 05:02 | 10.41945 | 78.83473 | 36855 ft | 427 kts | 167° |
| 2026-04-24 05:02 | 10.36237 | 78.85258 | 36858 ft | 428 kts | 167° |
| 2026-04-24 05:03 | 10.30570 | 78.87030 | 36863 ft | 428 kts | 167° |
| 2026-04-24 05:03 | 10.24855 | 78.88816 | 36863 ft | 429 kts | 167° |
| 2026-04-24 05:04 | 10.19145 | 78.90599 | 36869 ft | 429 kts | 167° |
| 2026-04-24 05:04 | 10.13451 | 78.92377 | 36866 ft | 430 kts | 167° |
| 2026-04-24 05:05 | 10.07722 | 78.94165 | 36867 ft | 430 kts | 167° |
| 2026-04-24 05:05 | 10.01999 | 78.95951 | 36867 ft | 430 kts | 167° |
| 2026-04-24 05:06 | 9.96299 | 78.97729 | 36871 ft | 430 kts | 167° |
| 2026-04-24 05:06 | 9.90558 | 78.99519 | 36874 ft | 431 kts | 167° |
| 2026-04-24 05:07 | 9.84820 | 79.01308 | 36870 ft | 431 kts | 167° |
| 2026-04-24 05:07 | 9.79117 | 79.03084 | 36873 ft | 431 kts | 167° |
| 2026-04-24 05:08 | 9.73362 | 79.04877 | 36873 ft | 431 kts | 167° |
| 2026-04-24 05:08 | 9.67616 | 79.06666 | 36876 ft | 431 kts | 167° |
| 2026-04-24 05:09 | 9.61914 | 79.08441 | 36873 ft | 431 kts | 166° |
| 2026-04-24 05:09 | 9.56185 | 79.10223 | 36874 ft | 431 kts | 166° |
| 2026-04-24 05:10 | 9.50434 | 79.12012 | 36872 ft | 431 kts | 166° |
| 2026-04-24 05:10 | 9.44733 | 79.13812 | 36875 ft | 431 kts | 166° |
| 2026-04-24 05:11 | 9.39006 | 79.15657 | 36872 ft | 432 kts | 166° |
| 2026-04-24 05:11 | 9.33289 | 79.17492 | 36873 ft | 432 kts | 166° |
| 2026-04-24 05:12 | 9.27548 | 79.19330 | 36871 ft | 432 kts | 166° |
| 2026-04-24 05:12 | 9.21793 | 79.21172 | 36870 ft | 433 kts | 166° |
| 2026-04-24 05:13 | 9.13195 | 79.23922 | 36876 ft | 434 kts | 166° |
| 2026-04-24 05:14 | 9.07459 | 79.25756 | 36878 ft | 434 kts | 166° |
| 2026-04-24 05:14 | 9.01671 | 79.27606 | 36883 ft | 435 kts | 166° |
| 2026-04-24 05:15 | 8.95919 | 79.29444 | 36884 ft | 435 kts | 166° |
| 2026-04-24 05:15 | 8.90135 | 79.31291 | 36885 ft | 435 kts | 165° |
| 2026-04-24 05:16 | 8.84375 | 79.33130 | 36886 ft | 436 kts | 165° |
| 2026-04-24 05:16 | 8.78573 | 79.34982 | 36886 ft | 436 kts | 165° |
| 2026-04-24 05:17 | 8.72971 | 79.37263 | 36544 ft | 435 kts | 156° |
| 2026-04-24 05:17 | 8.70312 | 79.38763 | 35923 ft | 438 kts | 151° |
| 2026-04-24 05:17 | 8.67735 | 79.40449 | 35173 ft | 442 kts | 149° |
| 2026-04-24 05:17 | 8.65149 | 79.42148 | 34397 ft | 445 kts | 149° |
| 2026-04-24 05:18 | 8.62537 | 79.43854 | 33590 ft | 448 kts | 149° |
| 2026-04-24 05:18 | 8.59940 | 79.45548 | 32759 ft | 450 kts | 148° |
| 2026-04-24 05:18 | 8.57295 | 79.47269 | 31930 ft | 452 kts | 148° |
| 2026-04-24 05:18 | 8.54636 | 79.48999 | 31101 ft | 454 kts | 147° |
| 2026-04-24 05:19 | 8.51965 | 79.50737 | 30383 ft | 454 kts | 147° |
| 2026-04-24 05:19 | 8.49293 | 79.52424 | 30053 ft | 452 kts | 150° |
| 2026-04-24 05:19 | 8.46507 | 79.53827 | 29909 ft | 456 kts | 156° |
| 2026-04-24 05:19 | 8.43530 | 79.54946 | 29645 ft | 455 kts | 161° |
| 2026-04-24 05:20 | 8.40515 | 79.55907 | 29092 ft | 452 kts | 161° |
| 2026-04-24 05:20 | 8.37520 | 79.56867 | 28452 ft | 449 kts | 161° |
| 2026-04-24 05:20 | 8.34549 | 79.57822 | 27790 ft | 446 kts | 161° |
| 2026-04-24 05:20 | 8.31610 | 79.58769 | 27136 ft | 443 kts | 161° |
| 2026-04-24 05:21 | 8.28670 | 79.59716 | 26483 ft | 441 kts | 161° |
| 2026-04-24 05:21 | 8.25786 | 79.60645 | 25851 ft | 438 kts | 161° |
| 2026-04-24 05:21 | 8.22855 | 79.61589 | 25205 ft | 436 kts | 161° |
| 2026-04-24 05:21 | 8.20004 | 79.62507 | 24597 ft | 434 kts | 161° |
| 2026-04-24 05:22 | 8.17126 | 79.63435 | 24005 ft | 432 kts | 161° |
| 2026-04-24 05:22 | 8.14260 | 79.64358 | 23424 ft | 430 kts | 161° |
| 2026-04-24 05:22 | 8.11412 | 79.65275 | 22808 ft | 426 kts | 161° |
| 2026-04-24 05:22 | 8.08601 | 79.66179 | 22229 ft | 421 kts | 161° |
| 2026-04-24 05:23 | 8.05858 | 79.67061 | 21665 ft | 417 kts | 161° |
| 2026-04-24 05:23 | 8.03093 | 79.67950 | 21090 ft | 413 kts | 161° |
| 2026-04-24 05:23 | 8.00365 | 79.68826 | 20538 ft | 409 kts | 161° |
| 2026-04-24 05:23 | 7.97669 | 79.69693 | 20152 ft | 402 kts | 161° |
| 2026-04-24 05:24 | 7.95006 | 79.70549 | 19748 ft | 402 kts | 161° |
| 2026-04-24 05:24 | 7.92374 | 79.71395 | 19272 ft | 399 kts | 161° |
| 2026-04-24 05:24 | 7.89732 | 79.72244 | 18755 ft | 396 kts | 160° |
| 2026-04-24 05:24 | 7.87109 | 79.73087 | 18241 ft | 393 kts | 160° |
| 2026-04-24 05:25 | 7.84517 | 79.73920 | 17688 ft | 389 kts | 160° |
| 2026-04-24 05:25 | 7.81950 | 79.74746 | 17133 ft | 385 kts | 160° |
| 2026-04-24 05:25 | 7.79408 | 79.75564 | 16600 ft | 381 kts | 160° |
| 2026-04-24 05:25 | 7.76917 | 79.76365 | 16074 ft | 377 kts | 161° |
| 2026-04-24 05:26 | 7.74427 | 79.77166 | 15536 ft | 374 kts | 161° |
| 2026-04-24 05:26 | 7.71956 | 79.77960 | 15034 ft | 370 kts | 161° |
| 2026-04-24 05:26 | 7.69512 | 79.78746 | 14526 ft | 367 kts | 161° |
| 2026-04-24 05:26 | 7.67088 | 79.79524 | 14033 ft | 364 kts | 161° |
| 2026-04-24 05:27 | 7.64712 | 79.80287 | 13524 ft | 361 kts | 161° |
| 2026-04-24 05:27 | 7.62322 | 79.81055 | 12976 ft | 358 kts | 161° |
| 2026-04-24 05:27 | 7.59955 | 79.81814 | 12439 ft | 355 kts | 161° |
| 2026-04-24 05:27 | 7.57634 | 79.82559 | 11917 ft | 352 kts | 161° |
| 2026-04-24 05:28 | 7.55294 | 79.83310 | 11383 ft | 350 kts | 161° |
| 2026-04-24 05:28 | 7.52975 | 79.84054 | 10872 ft | 347 kts | 161° |
| 2026-04-24 05:28 | 7.50680 | 79.84792 | 10389 ft | 345 kts | 161° |
| 2026-04-24 05:28 | 7.48455 | 79.85505 | 10227 ft | 332 kts | 161° |
| 2026-04-24 05:29 | 7.46300 | 79.86195 | 10109 ft | 318 kts | 161° |
| 2026-04-24 05:29 | 7.44196 | 79.86869 | 10002 ft | 304 kts | 161° |
| 2026-04-24 05:29 | 7.42226 | 79.87500 | 9779 ft | 296 kts | 161° |
| 2026-04-24 05:29 | 7.40256 | 79.88077 | 9376 ft | 295 kts | 171° |
| 2026-04-24 05:30 | 7.38219 | 79.87972 | 8938 ft | 295 kts | 195° |
| 2026-04-24 05:30 | 7.36415 | 79.87026 | 8519 ft | 294 kts | 216° |
| 2026-04-24 05:30 | 7.34786 | 79.85770 | 8118 ft | 292 kts | 218° |
| 2026-04-24 05:30 | 7.33200 | 79.84502 | 7831 ft | 287 kts | 218° |
| 2026-04-24 05:31 | 7.31665 | 79.83279 | 7696 ft | 272 kts | 217° |
| 2026-04-24 05:31 | 7.30231 | 79.82152 | 7558 ft | 256 kts | 217° |
| 2026-04-24 05:31 | 7.28864 | 79.81088 | 7393 ft | 241 kts | 217° |
| 2026-04-24 05:31 | 7.27559 | 79.80080 | 7186 ft | 228 kts | 216° |
| 2026-04-24 05:32 | 7.26341 | 79.79142 | 7007 ft | 216 kts | 216° |
| 2026-04-24 05:32 | 7.25157 | 79.78231 | 6688 ft | 214 kts | 216° |
| 2026-04-24 05:32 | 7.23972 | 79.77320 | 6341 ft | 213 kts | 216° |
| 2026-04-24 05:32 | 7.22793 | 79.76414 | 5963 ft | 212 kts | 216° |
| 2026-04-24 05:33 | 7.21624 | 79.75517 | 5601 ft | 210 kts | 216° |
| 2026-04-24 05:33 | 7.20858 | 79.74928 | 5366 ft | 209 kts | 216° |
| 2026-04-24 05:33 | 7.19699 | 79.74036 | 5024 ft | 206 kts | 216° |
| 2026-04-24 05:34 | 7.17270 | 79.72671 | 4293 ft | 200 kts | 179° |
| 2026-04-24 05:34 | 7.15916 | 79.72923 | 3929 ft | 198 kts | 164° |
| 2026-04-24 05:34 | 7.14598 | 79.73282 | 3602 ft | 195 kts | 165° |
| 2026-04-24 05:34 | 7.13303 | 79.73627 | 3261 ft | 194 kts | 165° |
| 2026-04-24 05:35 | 7.11986 | 79.73973 | 2886 ft | 194 kts | 166° |
| 2026-04-24 05:35 | 7.10679 | 79.74310 | 2435 ft | 198 kts | 165° |
| 2026-04-24 05:35 | 7.09435 | 79.74889 | 2101 ft | 195 kts | 142° |
| 2026-04-24 05:35 | 7.08571 | 79.75865 | 2045 ft | 176 kts | 128° |
| 2026-04-24 05:36 | 7.07873 | 79.76802 | 1996 ft | 157 kts | 129° |
| 2026-04-24 05:36 | 7.07235 | 79.77632 | 2008 ft | 150 kts | 128° |
| 2026-04-24 05:36 | 7.06851 | 79.78588 | 1997 ft | 148 kts | 94° |
| 2026-04-24 05:36 | 7.07121 | 79.79587 | 2008 ft | 152 kts | 60° |
| 2026-04-24 05:37 | 7.07801 | 79.80390 | 1922 ft | 150 kts | 43° |
| 2026-04-24 05:37 | 7.08602 | 79.81038 | 1695 ft | 143 kts | 37° |
| 2026-04-24 05:37 | 7.09385 | 79.81625 | 1458 ft | 136 kts | 39° |
| 2026-04-24 05:37 | 7.10124 | 79.82197 | 1532 ft | 143 kts | 38° |
| 2026-04-24 05:38 | 7.10926 | 79.82802 | 1578 ft | 144 kts | 37° |
| 2026-04-24 05:38 | 7.11733 | 79.83401 | 1432 ft | 142 kts | 37° |
| 2026-04-24 05:38 | 7.12544 | 79.83961 | 1293 ft | 142 kts | 34° |
| 2026-04-24 05:38 | 7.13367 | 79.84534 | 1076 ft | 143 kts | 38° |
| 2026-04-24 05:39 | 7.14111 | 79.85143 | 879 ft | 138 kts | 41° |
| 2026-04-24 05:39 | 7.14847 | 79.85758 | 677 ft | 135 kts | 41° |
| 2026-04-24 05:39 | 7.15565 | 79.86374 | 362 ft | 135 kts | 41° |
| 2026-04-24 05:39 | 7.16282 | 79.86958 | 148 ft | 132 kts | 40° |
| 2026-04-24 05:40 | 7.17014 | 79.87533 | 33 ft | 134 kts | 39° |
| 2026-04-24 05:40 | 7.17718 | 79.88081 | 30 ft | 111 kts | 38° |
| 2026-04-24 05:40 | 7.18173 | 79.88422 | 27 ft | 53 kts | 37° |
| 2026-04-24 05:40 | 7.18421 | 79.88612 | 27 ft | 43 kts | 38° |
| 2026-04-24 05:41 | 7.18635 | 79.88774 | 29 ft | 33 kts | 39° |
| 2026-04-24 05:41 | 7.18688 | 79.88845 | 29 ft | 2 kts | 97° |
| 2026-04-24 05:41 | 7.18670 | 79.88874 | 29 ft | 9 kts | 128° |
| 2026-04-24 05:41 | 7.18605 | 79.88943 | 28 ft | 17 kts | 156° |
| 2026-04-24 05:42 | 7.18501 | 79.88896 | 27 ft | 19 kts | 217° |
| 2026-04-24 05:42 | 7.18390 | 79.88810 | 27 ft | 22 kts | 217° |
| 2026-04-24 05:42 | 7.18262 | 79.88713 | 27 ft | 24 kts | 216° |
| 2026-04-24 05:42 | 7.18121 | 79.88606 | 27 ft | 26 kts | 217° |
| 2026-04-24 05:43 | 7.18000 | 79.88515 | 27 ft | 21 kts | 216° |
| 2026-04-24 05:43 | 7.17875 | 79.88424 | 27 ft | 16 kts | 194° |
| 2026-04-24 05:43 | 7.17853 | 79.88435 | 27 ft | 9 kts | 139° |
| 2026-04-24 05:43 | 7.17802 | 79.88500 | 27 ft | 9 kts | 145° |
| 2026-04-24 05:44 | 7.17771 | 79.88553 | 27 ft | 11 kts | 128° |
| 2026-04-24 05:44 | 7.17719 | 79.88620 | 27 ft | 1 kts | 128° |
| 2026-04-24 05:44 | 7.17706 | 79.88630 | 27 ft | 5 kts | 150° |
| 2026-04-24 05:44 | 7.17673 | 79.88611 | 27 ft | 8 kts | 218° |
| 2026-04-24 05:45 | 7.17623 | 79.88573 | 27 ft | 0 kts | 217° |
| 2026-04-24 05:45 | 7.17619 | 79.88570 | 27 ft | 0 kts | 217° |
| 2026-04-24 05:45 | 7.17618 | 79.88570 | 27 ft | 1 kts | 217° |
| 2026-04-24 05:45 | 7.17614 | 79.88566 | 27 ft | 0 kts | 217° |